createdAt,value
2023-01-13T00:01:15.522Z,1.02
2023-01-13T00:03:42.734Z,1.67
2023-01-13T00:06:15.179Z,1.23
2023-01-13T00:08:41.794Z,1.40
2023-01-13T00:11:09.638Z,1.13
2023-01-13T00:13:38.068Z,2.92
2023-01-13T00:16:07.188Z,1.38
2023-01-13T00:18:34.843Z,2.00
2023-01-13T00:21:03.632Z,1.75
2023-01-13T00:23:32.029Z,3.03
2023-01-13T00:26:02.136Z,4.40
2023-01-13T00:28:29.092Z,3.33
2023-01-13T00:30:58.654Z,3.75
2023-01-13T00:33:25.544Z,2.25
2023-01-13T00:36:02.592Z,3.60
2023-01-13T00:38:31.234Z,1.98
2023-01-13T00:41:03.458Z,2.30
2023-01-13T00:43:32.494Z,1.13
2023-01-13T00:45:59.599Z,2.30
2023-01-13T00:48:27.362Z,1.17
2023-01-13T00:50:56.814Z,1.13
2023-01-13T00:53:23.634Z,2.13
2023-01-13T00:55:50.152Z,0.77
2023-01-13T00:58:16.683Z,1.38
2023-01-13T01:01:49.842Z,1.65
2023-01-13T01:04:16.404Z,3.90
2023-01-13T01:06:43.017Z,2.15
2023-01-13T01:09:14.516Z,3.55
2023-01-13T01:11:41.969Z,2.75
2023-01-13T01:14:11.985Z,1.92
2023-01-13T01:16:40.243Z,3.15
2023-01-13T01:19:07.679Z,4.68
2023-01-13T01:21:35.177Z,2.47
2023-01-13T01:24:04.422Z,4.18
2023-01-13T01:26:31.848Z,3.75
2023-01-13T01:29:05.807Z,5.55
2023-01-13T01:31:33.616Z,1.55
2023-01-13T01:34:00.999Z,4.72
2023-01-13T01:36:31.399Z,6.82
2023-01-13T01:38:59.037Z,3.83
2023-01-13T01:41:30.262Z,5.22
2023-01-13T01:44:10.248Z,5.47
2023-01-13T01:46:44.558Z,6.00
2023-01-13T01:49:20.552Z,1.33
2023-01-13T01:51:59.330Z,1.40
2023-01-13T01:54:32.119Z,5.85
2023-01-13T01:56:58.952Z,5.25
2023-01-13T01:59:29.700Z,5.30
2023-01-13T02:04:27.987Z,4.85
2023-01-13T02:06:56.747Z,2.58
2023-01-13T02:09:26.080Z,3.20
2023-01-13T02:12:10.952Z,2.80
2023-01-13T02:14:38.893Z,4.55
2023-01-13T02:17:14.639Z,5.40
2023-01-13T02:19:59.915Z,2.38
2023-01-13T02:23:01.440Z,3.08
2023-01-13T02:25:48.790Z,2.70
2023-01-13T02:29:05.652Z,6.65
2023-01-13T02:31:44.409Z,3.42
2023-01-13T02:34:20.753Z,7.47
2023-01-13T02:36:58.210Z,4.43
2023-01-13T02:39:36.195Z,4.47
2023-01-13T02:42:24.391Z,8.20
2023-01-13T02:45:16.907Z,3.50
2023-01-13T02:47:46.349Z,5.65
2023-01-13T02:50:18.001Z,9.20
2023-01-13T02:53:01.208Z,10.60
2023-01-13T02:58:03.273Z,7.68
2023-01-13T03:00:31.017Z,11.32
2023-01-13T03:02:57.853Z,8.30
2023-01-13T03:05:26.641Z,14.18
2023-01-13T03:08:05.215Z,12.45
2023-01-13T03:10:34.717Z,12.73
2023-01-13T03:13:04.320Z,6.07
2023-01-13T03:15:40.756Z,7.32
2023-01-13T03:18:19.111Z,10.60
2023-01-13T03:20:58.265Z,8.07
2023-01-13T03:23:51.112Z,7.15
2023-01-13T03:26:31.591Z,12.38
2023-01-13T03:29:13.728Z,8.95
2023-01-13T03:31:47.414Z,8.63
2023-01-13T03:34:20.510Z,9.10
2023-01-13T03:36:50.925Z,16.88
2023-01-13T03:39:25.167Z,10.48
2023-01-13T03:41:59.813Z,13.20
2023-01-13T03:44:34.439Z,15.30
2023-01-13T03:47:23.864Z,15.80
2023-01-13T03:50:08.470Z,24.25
2023-01-13T03:52:40.332Z,9.55
2023-01-13T03:55:11.748Z,13.77
2023-01-13T03:58:00.324Z,18.70
2023-01-13T04:00:33.905Z,12.50
2023-01-13T04:03:23.222Z,14.13
2023-01-13T04:05:55.147Z,11.75
2023-01-13T04:08:26.038Z,12.15
2023-01-13T04:11:00.334Z,13.15
2023-01-13T04:13:30.235Z,14.70
2023-01-13T04:15:56.745Z,9.68
2023-01-13T04:18:30.811Z,18.35
2023-01-13T04:21:00.146Z,12.75
2023-01-13T04:23:28.080Z,9.43
2023-01-13T04:25:55.391Z,12.57
2023-01-13T04:28:22.309Z,8.52
2023-01-13T04:30:49.644Z,8.65
2023-01-13T04:33:17.731Z,14.35
2023-01-13T04:35:45.521Z,21.80
2023-01-13T04:38:14.801Z,11.88
2023-01-13T04:40:42.195Z,15.15
2023-01-13T04:43:08.668Z,15.07
2023-01-13T04:45:35.359Z,15.23
2023-01-13T04:48:02.110Z,16.00
2023-01-13T04:50:28.973Z,11.20
2023-01-13T04:52:55.542Z,14.50
2023-01-13T04:55:24.199Z,15.63
2023-01-13T04:57:50.658Z,12.82
2023-01-13T05:00:19.624Z,13.55
2023-01-13T05:02:49.895Z,20.55
2023-01-13T05:05:16.413Z,15.82
2023-01-13T05:07:42.909Z,15.80
2023-01-13T05:10:10.044Z,17.92
2023-01-13T05:12:55.254Z,18.02
2023-01-13T05:15:40.022Z,22.00
2023-01-13T05:18:06.970Z,16.27
2023-01-13T05:20:33.892Z,15.75
2023-01-13T05:23:19.022Z,25.20
2023-01-13T05:25:47.650Z,22.52
2023-01-13T05:28:14.657Z,14.52
2023-01-13T05:30:44.287Z,10.73
2023-01-13T05:33:12.274Z,16.25
2023-01-13T05:35:40.253Z,17.40
2023-01-13T05:38:07.104Z,6.93
2023-01-13T05:40:52.620Z,16.17
2023-01-13T05:43:22.110Z,14.52
2023-01-13T05:46:09.440Z,15.60
2023-01-13T05:48:41.385Z,11.43
2023-01-13T05:51:10.112Z,9.48
2023-01-13T05:53:37.130Z,10.93
2023-01-13T05:56:04.923Z,13.48
2023-01-13T05:58:31.494Z,12.27
2023-01-13T06:01:02.826Z,13.73
2023-01-13T06:03:29.617Z,13.25
2023-01-13T06:05:59.267Z,10.70
2023-01-13T06:08:26.034Z,9.55
2023-01-13T06:10:52.801Z,12.75
2023-01-13T06:13:19.268Z,11.77
2023-01-13T06:15:46.597Z,11.45
2023-01-13T06:18:13.199Z,7.82
2023-01-13T06:20:39.693Z,13.07
2023-01-13T06:23:10.627Z,6.95
2023-01-13T06:26:08.354Z,11.50
2023-01-13T06:28:34.969Z,11.85
2023-01-13T06:31:06.703Z,8.38
2023-01-13T06:33:42.853Z,10.15
2023-01-13T06:36:19.798Z,9.05
2023-01-13T06:41:14.772Z,8.68
2023-01-13T06:43:41.273Z,13.07
2023-01-13T06:46:08.091Z,9.32
2023-01-13T06:48:35.596Z,7.93
2023-01-13T06:51:03.765Z,10.77
2023-01-13T06:53:30.215Z,9.18
2023-01-13T06:55:56.663Z,9.30
2023-01-13T06:58:23.506Z,10.50
2023-01-13T07:00:51.401Z,6.95
2023-01-13T07:03:19.736Z,9.50
2023-01-13T07:05:52.538Z,10.98
2023-01-13T07:08:19.104Z,10.45
2023-01-13T07:10:45.601Z,10.32
2023-01-13T07:13:30.780Z,8.13
2023-01-13T07:15:59.720Z,8.85
2023-01-13T07:18:28.404Z,4.75
2023-01-13T07:20:57.109Z,11.73
2023-01-13T07:23:24.895Z,8.95
2023-01-13T07:25:51.397Z,8.85
2023-01-13T07:28:17.914Z,16.02
2023-01-13T07:30:44.714Z,9.00
2023-01-13T07:33:11.171Z,11.63
2023-01-13T07:35:37.765Z,10.00
2023-01-13T07:38:04.272Z,8.88
2023-01-13T07:40:30.802Z,13.52
2023-01-13T07:43:16.924Z,6.35
2023-01-13T07:45:43.491Z,6.18
2023-01-13T07:48:10.247Z,5.43
2023-01-13T07:50:36.991Z,4.93
2023-01-13T07:53:03.583Z,6.93
2023-01-13T07:55:30.107Z,8.93
2023-01-13T07:57:56.600Z,5.95
2023-01-13T08:00:23.476Z,5.72
2023-01-13T08:02:50.031Z,8.32
2023-01-13T08:05:16.688Z,9.70
2023-01-13T08:07:43.171Z,13.90
2023-01-13T08:10:10.132Z,6.75
2023-01-13T08:12:57.024Z,11.88
2023-01-13T08:15:23.896Z,12.63
2023-01-13T08:17:50.335Z,16.63
2023-01-13T08:20:16.998Z,15.07
2023-01-13T08:22:44.335Z,14.38
2023-01-13T08:25:10.836Z,15.57
2023-01-13T08:27:37.327Z,12.15
2023-01-13T08:30:05.774Z,8.63
2023-01-13T08:32:32.309Z,9.60
2023-01-13T08:34:58.851Z,8.20
2023-01-13T08:37:25.345Z,14.00
2023-01-13T08:39:51.835Z,19.45
2023-01-13T08:42:18.260Z,16.88
2023-01-13T08:44:44.707Z,16.48
2023-01-13T08:47:11.212Z,12.20
2023-01-13T08:49:37.695Z,21.95
2023-01-13T08:52:04.723Z,16.63
2023-01-13T08:54:31.364Z,17.65
2023-01-13T08:56:58.049Z,14.77
2023-01-13T08:59:24.660Z,18.08
2023-01-13T09:01:51.204Z,13.48
2023-01-13T09:04:21.862Z,13.32
2023-01-13T09:06:49.250Z,19.35
2023-01-13T09:09:16.140Z,21.00
2023-01-13T09:12:03.702Z,18.60
2023-01-13T09:14:33.188Z,18.60
2023-01-13T09:17:00.455Z,15.80
2023-01-13T09:19:28.419Z,13.65
2023-01-13T09:21:57.805Z,16.95
2023-01-13T09:24:25.300Z,14.65
2023-01-13T09:26:51.929Z,16.60
2023-01-13T09:29:18.632Z,17.50
2023-01-13T09:31:45.114Z,16.70
2023-01-13T09:34:34.623Z,16.30
2023-01-13T09:37:01.253Z,18.17
2023-01-13T09:39:27.793Z,18.27
2023-01-13T09:42:16.854Z,21.38
2023-01-13T09:45:09.063Z,16.60
2023-01-13T09:47:43.801Z,18.83
2023-01-13T09:50:34.205Z,19.42
2023-01-13T09:53:01.245Z,23.90
2023-01-13T09:55:36.694Z,14.07
2023-01-13T09:58:13.144Z,17.00
2023-01-13T10:00:47.141Z,17.77
2023-01-13T10:03:19.458Z,16.40
2023-01-13T10:05:51.573Z,16.25
2023-01-13T10:08:25.731Z,19.50
2023-01-13T10:10:58.427Z,16.30
2023-01-13T10:13:27.745Z,17.85
2023-01-13T10:16:45.437Z,24.13
2023-01-13T10:19:29.932Z,20.00
2023-01-13T10:22:19.731Z,13.15
2023-01-13T10:25:08.597Z,14.02
2023-01-13T10:27:38.270Z,12.35
2023-01-13T10:30:31.243Z,18.63
2023-01-13T10:33:06.232Z,16.25
2023-01-13T10:35:55.586Z,20.52
2023-01-13T10:40:51.228Z,13.20
2023-01-13T10:43:17.863Z,18.00
2023-01-13T10:45:55.748Z,15.57
2023-01-13T10:48:22.335Z,14.50
2023-01-13T10:50:48.956Z,19.27
2023-01-13T10:53:25.685Z,25.33
2023-01-13T10:56:03.804Z,20.58
2023-01-13T10:58:30.353Z,16.25
2023-01-13T11:01:05.608Z,23.92
2023-01-13T11:03:42.777Z,21.38
2023-01-13T11:06:19.109Z,15.30
2023-01-13T11:08:49.261Z,15.82
2023-01-13T11:11:39.965Z,22.05
2023-01-13T11:14:36.508Z,14.30
2023-01-13T11:17:12.231Z,20.88
2023-01-13T11:19:47.484Z,20.15
2023-01-13T11:22:23.884Z,16.63
2023-01-13T11:24:52.912Z,23.52
2023-01-13T11:27:34.380Z,16.48
2023-01-13T11:30:25.775Z,24.65
2023-01-13T11:33:10.738Z,21.73
2023-01-13T11:36:09.172Z,15.52
2023-01-13T11:38:54.855Z,15.18
2023-01-13T11:41:43.470Z,17.13
2023-01-13T11:44:09.883Z,25.65
2023-01-13T11:46:36.974Z,21.15
2023-01-13T11:49:04.916Z,18.65
2023-01-13T11:51:49.884Z,17.10
2023-01-13T11:54:49.038Z,16.60
2023-01-13T11:57:24.703Z,19.15
2023-01-13T12:00:18.023Z,19.73
2023-01-13T12:03:07.363Z,19.02
2023-01-13T12:08:18.208Z,14.55
2023-01-13T12:10:58.312Z,16.52
2023-01-13T12:13:43.330Z,25.17
2023-01-13T12:16:19.109Z,10.45
2023-01-13T12:18:55.860Z,12.88
2023-01-13T12:21:26.357Z,13.90
2023-01-13T12:24:13.362Z,14.80
2023-01-13T12:26:46.296Z,11.63
2023-01-13T12:29:18.990Z,12.48
2023-01-13T12:31:49.076Z,11.07
2023-01-13T12:34:35.872Z,13.40
2023-01-13T12:37:24.379Z,10.48
2023-01-13T12:40:20.396Z,12.30
2023-01-13T12:43:21.623Z,18.23
2023-01-13T12:45:48.140Z,11.32
2023-01-13T12:48:56.655Z,13.65
2023-01-13T12:51:28.649Z,10.45
2023-01-13T12:53:56.371Z,10.65
2023-01-13T12:56:36.489Z,9.20
2023-01-13T12:59:24.253Z,16.52
2023-01-13T13:02:11.850Z,14.23
2023-01-13T13:04:51.835Z,11.02
2023-01-13T13:07:31.891Z,14.18
2023-01-13T13:10:04.467Z,17.77
2023-01-13T13:12:49.699Z,13.52
2023-01-13T13:15:26.364Z,13.82
2023-01-13T13:17:59.157Z,16.08
2023-01-13T13:20:55.188Z,17.23
2023-01-13T13:23:50.070Z,12.50
2023-01-13T13:26:30.725Z,16.13
2023-01-13T13:29:15.807Z,12.93
2023-01-13T13:31:45.160Z,19.70
2023-01-13T13:34:42.885Z,12.60
2023-01-13T13:37:30.768Z,14.48
2023-01-13T13:40:15.858Z,10.10
2023-01-13T13:43:32.880Z,11.35
2023-01-13T13:46:18.031Z,15.95
2023-01-13T13:48:55.333Z,8.63
2023-01-13T13:51:38.476Z,15.82
2023-01-13T13:54:05.981Z,16.23
2023-01-13T13:56:38.304Z,11.18
2023-01-13T13:59:04.861Z,17.60
2023-01-13T14:01:37.068Z,17.48
2023-01-13T14:04:15.259Z,20.10
2023-01-13T14:06:56.712Z,16.60
2023-01-13T14:09:25.581Z,15.38
2023-01-13T14:11:57.287Z,17.17
2023-01-13T14:14:24.547Z,16.88
2023-01-13T14:16:52.021Z,13.75
2023-01-13T14:19:35.155Z,17.33
2023-01-13T14:22:04.043Z,11.30
2023-01-13T14:24:31.672Z,24.88
2023-01-13T14:27:15.163Z,27.30
2023-01-13T14:29:41.845Z,19.77
2023-01-13T14:32:08.914Z,19.63
2023-01-13T14:34:35.752Z,12.27
2023-01-13T14:37:03.026Z,16.00
2023-01-13T14:39:39.711Z,21.73
2023-01-13T14:42:12.904Z,14.40
2023-01-13T14:44:44.851Z,12.23
2023-01-13T14:47:22.940Z,15.18
2023-01-13T14:50:01.042Z,17.10
2023-01-13T14:52:32.803Z,20.17
2023-01-13T14:55:11.120Z,16.58
2023-01-13T14:57:41.308Z,16.17
2023-01-13T15:00:13.599Z,16.80
2023-01-13T15:02:50.905Z,12.57
2023-01-13T15:05:17.398Z,18.92
2023-01-13T15:07:52.791Z,19.55
2023-01-13T15:12:51.896Z,16.00
2023-01-13T15:15:29.106Z,19.17
2023-01-13T15:17:56.825Z,11.85
2023-01-13T15:20:24.872Z,15.88
2023-01-13T15:22:52.546Z,16.75
2023-01-13T15:25:20.190Z,20.65
2023-01-13T15:27:50.708Z,28.73
2023-01-13T15:30:27.053Z,24.10
2023-01-13T15:32:55.404Z,19.77
2023-01-13T15:35:24.111Z,16.48
2023-01-13T15:37:51.275Z,16.63
2023-01-13T15:40:30.362Z,17.13
2023-01-13T15:43:15.752Z,22.13
2023-01-13T15:46:02.199Z,17.75
2023-01-13T15:48:32.076Z,15.35
2023-01-13T15:50:59.531Z,11.30
2023-01-13T15:53:27.603Z,12.32
2023-01-13T15:55:56.766Z,14.25
2023-01-13T15:58:28.506Z,9.05
2023-01-13T16:00:55.486Z,9.13
2023-01-13T16:03:22.445Z,11.65
2023-01-13T16:05:49.075Z,10.30
2023-01-13T16:08:19.804Z,8.32
2023-01-13T16:10:46.789Z,8.57
2023-01-13T16:13:13.928Z,6.55
2023-01-13T16:15:50.140Z,12.40
2023-01-13T16:18:19.347Z,10.95
2023-01-13T16:20:46.714Z,10.00
2023-01-13T16:23:13.715Z,14.27
2023-01-13T16:25:43.045Z,11.50
2023-01-13T16:28:20.547Z,22.70
2023-01-13T16:30:47.125Z,18.58
2023-01-13T16:33:14.111Z,11.05
2023-01-13T16:36:09.316Z,19.27
2023-01-13T16:38:27.163Z,13.18
2023-01-13T16:40:56.900Z,17.80
2023-01-13T16:43:23.360Z,16.20
2023-01-13T16:45:49.988Z,16.77
2023-01-13T16:48:20.440Z,18.27
2023-01-13T16:50:47.466Z,15.60
2023-01-13T16:53:13.984Z,18.52
2023-01-13T16:55:41.676Z,23.40
2023-01-13T16:58:26.284Z,20.40
2023-01-13T17:00:53.148Z,21.80
2023-01-13T17:03:19.715Z,20.70
2023-01-13T17:05:49.385Z,16.38
2023-01-13T17:08:18.106Z,13.75
2023-01-13T17:10:45.792Z,18.30
2023-01-13T17:13:16.417Z,25.60
2023-01-13T17:15:43.923Z,28.42
2023-01-13T17:18:11.488Z,21.40
2023-01-13T17:20:37.941Z,13.15
2023-01-13T17:23:04.428Z,24.67
2023-01-13T17:25:30.944Z,20.00
2023-01-13T17:27:58.069Z,21.73
2023-01-13T17:30:24.771Z,18.15
2023-01-13T17:32:51.269Z,19.42
2023-01-13T17:35:22.832Z,18.35
2023-01-13T17:37:49.344Z,15.50
2023-01-13T17:40:17.070Z,18.65
2023-01-13T17:42:43.553Z,11.52
2023-01-13T17:45:13.435Z,22.48
2023-01-13T17:47:39.864Z,17.98
2023-01-13T17:50:06.677Z,15.45
2023-01-13T17:52:34.268Z,17.02
2023-01-13T17:55:00.750Z,18.40
2023-01-13T17:57:27.229Z,16.52
2023-01-13T17:59:53.681Z,22.65
2023-01-13T18:02:20.282Z,15.32
2023-01-13T18:04:46.979Z,13.98
2023-01-13T18:07:13.434Z,20.50
2023-01-13T18:09:39.969Z,18.23
2023-01-13T18:12:06.807Z,22.20
2023-01-13T18:14:34.237Z,18.63
2023-01-13T18:17:01.129Z,18.55
2023-01-13T18:19:46.012Z,16.48
2023-01-13T18:22:33.851Z,15.45
2023-01-13T18:25:18.628Z,12.05
2023-01-13T18:27:45.582Z,20.77
2023-01-13T18:30:13.816Z,16.13
2023-01-13T18:32:40.403Z,22.67
2023-01-13T18:35:10.341Z,18.10
2023-01-13T18:37:41.915Z,24.02
2023-01-13T18:40:11.214Z,15.32
2023-01-13T18:42:54.239Z,15.07
2023-01-13T18:45:29.849Z,11.60
2023-01-13T18:47:58.717Z,14.80
2023-01-13T18:50:26.033Z,15.52
2023-01-13T18:52:52.935Z,13.68
2023-01-13T18:55:19.835Z,20.73
2023-01-13T18:57:46.711Z,18.17
2023-01-13T19:00:17.126Z,11.93
2023-01-13T19:02:44.658Z,14.93
2023-01-13T19:05:11.449Z,16.27
2023-01-13T19:07:38.142Z,16.23
2023-01-13T19:10:06.575Z,13.93
2023-01-13T19:12:33.819Z,17.50
2023-01-13T19:15:01.675Z,17.38
2023-01-13T19:17:32.637Z,18.25
2023-01-13T19:20:00.028Z,18.50
2023-01-13T19:22:30.318Z,19.02
2023-01-13T19:24:57.796Z,22.75
2023-01-13T19:27:25.013Z,15.13
2023-01-13T19:29:53.733Z,18.85
2023-01-13T19:32:21.930Z,20.20
2023-01-13T19:34:51.102Z,18.13
2023-01-13T19:37:19.048Z,18.33
2023-01-13T19:39:45.675Z,27.48
2023-01-13T19:42:31.592Z,16.25
2023-01-13T19:45:16.382Z,15.90
2023-01-13T19:47:45.322Z,18.13
2023-01-13T19:50:13.633Z,14.95
2023-01-13T19:52:41.012Z,26.50
2023-01-13T19:55:07.971Z,24.48
2023-01-13T19:57:34.457Z,22.70
2023-01-13T20:00:01.098Z,24.00
2023-01-13T20:02:28.231Z,20.52
2023-01-13T20:04:56.646Z,22.52
2023-01-13T20:07:25.023Z,17.00
2023-01-13T20:09:52.753Z,56.88
2023-01-13T20:12:24.188Z,18.50
2023-01-13T20:14:51.437Z,18.90
2023-01-13T20:17:22.170Z,22.27
2023-01-13T20:19:48.870Z,18.50
2023-01-13T20:22:15.863Z,17.20
2023-01-13T20:24:42.457Z,19.48
2023-01-13T20:27:09.085Z,27.50
2023-01-13T20:29:35.646Z,26.05
2023-01-13T20:32:02.624Z,26.42
2023-01-13T20:34:29.705Z,27.50
2023-01-13T20:36:56.537Z,27.40
2023-01-13T20:39:27.928Z,24.88
2023-01-13T20:42:13.531Z,22.23
2023-01-13T20:44:40.704Z,22.58
2023-01-13T20:47:07.946Z,75.03
2023-01-13T20:49:36.789Z,20.13
2023-01-13T20:52:09.334Z,21.42
2023-01-13T20:54:37.307Z,28.20
2023-01-13T20:57:07.940Z,24.60
2023-01-13T20:59:34.458Z,29.25
2023-01-13T21:02:01.397Z,36.72
2023-01-13T21:04:28.194Z,20.88
2023-01-13T21:06:56.128Z,25.48
2023-01-13T21:09:23.842Z,26.45
2023-01-13T21:12:09.712Z,23.30
2023-01-13T21:14:55.002Z,31.80
2023-01-13T21:17:40.425Z,27.40
2023-01-13T21:20:09.712Z,18.75
2023-01-13T21:22:36.234Z,48.90
2023-01-13T21:25:04.045Z,26.85
2023-01-13T21:27:31.150Z,30.70
2023-01-13T21:29:57.914Z,24.88
2023-01-13T21:32:24.412Z,27.45
2023-01-13T21:34:50.995Z,27.30
2023-01-13T21:37:18.530Z,25.73
2023-01-13T21:39:45.352Z,32.42
2023-01-13T21:42:34.545Z,33.75
2023-01-13T21:45:21.521Z,21.77
2023-01-13T21:47:51.995Z,28.13
2023-01-13T21:50:24.257Z,29.65
2023-01-13T21:52:52.554Z,22.20
2023-01-13T21:55:20.741Z,35.38
2023-01-13T21:57:52.461Z,24.35
2023-01-13T22:00:20.676Z,35.25
2023-01-13T22:02:48.302Z,31.70
2023-01-13T22:05:17.320Z,29.77
2023-01-13T22:07:43.851Z,26.02
2023-01-13T22:10:13.809Z,30.00
2023-01-13T22:12:40.509Z,34.78
2023-01-13T22:15:07.824Z,39.92
2023-01-13T22:17:34.338Z,28.42
2023-01-13T22:20:01.383Z,43.50
2023-01-13T22:22:29.150Z,37.05
2023-01-13T22:24:55.687Z,28.02
2023-01-13T22:27:25.297Z,41.28
2023-01-13T22:29:52.963Z,32.75
2023-01-13T22:32:20.767Z,31.45
2023-01-13T22:37:14.417Z,24.33
2023-01-13T22:39:41.057Z,40.97
2023-01-13T22:42:07.647Z,32.47
2023-01-13T22:44:34.244Z,29.73
2023-01-13T22:47:00.753Z,27.60
2023-01-13T22:49:27.268Z,20.92
2023-01-13T22:51:53.818Z,29.85
2023-01-13T22:54:20.679Z,31.55
2023-01-13T22:56:47.146Z,27.77
2023-01-13T22:59:14.474Z,24.17
2023-01-13T23:01:42.115Z,27.20
2023-01-13T23:04:12.112Z,28.20
2023-01-13T23:06:38.693Z,24.52
2023-01-13T23:09:05.221Z,25.20
2023-01-13T23:11:32.249Z,25.90
2023-01-13T23:14:01.122Z,29.85
2023-01-13T23:16:29.243Z,30.58
2023-01-13T23:18:56.153Z,30.50
2023-01-13T23:21:26.143Z,34.55
2023-01-13T23:23:53.596Z,36.65
2023-01-13T23:26:21.145Z,35.25
2023-01-13T23:28:48.437Z,33.70
2023-01-13T23:31:18.354Z,24.17
2023-01-13T23:33:45.473Z,37.47
2023-01-13T23:36:15.111Z,30.33
2023-01-13T23:38:42.446Z,27.25
2023-01-13T23:41:10.415Z,30.88
2023-01-13T23:43:37.207Z,28.25
2023-01-13T23:46:06.058Z,31.95
2023-01-13T23:48:33.060Z,27.90
2023-01-13T23:51:01.033Z,35.60
2023-01-13T23:53:39.970Z,28.23
2023-01-13T23:56:10.312Z,33.13
2023-01-13T23:58:36.906Z,27.17
